Portada
METAR-TAF:

METAR-TAF

Aeroports :

Aeroport de Uíge

Uíge, Angola

latitud: 7-36-10S, longitud: 15-1-40E, altitud: 829 m

Observació

L'informe es va fer fa 16 hores i 1 minuts, a les 08:00 UTC
Vent 4 kt del Sud/Sud-Est
Temperatura 21°C
Humitat 94%
Pressió 1016 hPa
Visibilitat: 8000 m
Escasses núvols a una alçada de 1700 ft

METAR: FNUG 290800Z 15004KT 8000 FEW017 21/20 Q1016

Hora: 01:01 (00:01 UTC)


TAF: manca

Observacions i pronòstics meteorològics de més de 4000 aeroports (METAR i TAF).

Les estacions disponibles són els punts grocs i vermells al mapa.

Posi el ratolí al punt desitjat per veure el nom de l'estació.

Feu clic per veure les observacions i els pronòstics meteorològics.

Per canviar el mapa: feu clic els botons verds amb una creu de color negre per apropar; al botó verd amb un guió per allunyar la imatge; o en les fletxes verdes per a mapes adjacents.


METAR-TAF: